SCC: Watkins Glen practice one times

Pos Num Class Team Time Gap To 1st Speed --- --- ----- ------------------------------ ---------- ------- ------- ------- 1. 5 GS Blackforest Motorsports 1:56.064 105.459 2. 60...

Pos Num Class Team                                 Time     Gap  To 1st   Speed
--- --- ----- ------------------------------ ---------- ------- ------- -------
 1.   5 GS    Blackforest Motorsports          1:56.064                 105.459
 2.  60 GS    Finlay Motorsports               2:06.604  10.540  10.540  96.679
 3.  96 GS    Turner Motorsport                2:06.748   0.144  10.684  96.570
 4.  07 GS    Powell Motorsport                2:06.773   0.025  10.709  96.551
 5.  16 GS    Zoom Motorsports                 2:07.025   0.252  10.961  96.359
 6.  99 GS    Anchor Racing                    2:07.026   0.001  10.962  96.358
 7.  55 GS    Multimatic Motorsports           2:07.076   0.050  11.012  96.320
 8.  13 GS    Unitech Racing                   2:07.141   0.065  11.077  96.271
 9.   6 GS    Zoom Motorsports                 2:07.233   0.092  11.169  96.201
10.  92 GS    Anchor Racing                    2:07.356   0.123  11.292  96.109
11.  28 GS    Race Prep Motorsports            2:07.481   0.125  11.417  96.014
12.  79 GS    Team Salad Racing                2:07.484   0.003  11.420  96.012
13.  58 GS    Rehagen Racing                   2:07.486   0.002  11.422  96.011
14.  43 GS    Team Sahlen                      2:07.548   0.062  11.484  95.964
15.  05 GS    Multimatic Motorsports           2:07.556   0.008  11.492  95.958
16.   9 GS    Team Salad Racing                2:07.971   0.415  11.907  95.647
17.  17 GS    Doncaster Racing                 2:07.978   0.007  11.914  95.641
18.   7 GS    Power Racing Team                2:07.986   0.008  11.922  95.635
19.  40 GS    Team Sahlen                      2:08.058   0.072  11.994  95.582
20.  90 GS    Automatic Racing                 2:08.075   0.017  12.011  95.569
21.  69 GS    Krohn Racing/TRG                 2:08.075   0.000  12.011  95.569
22.  81 GS    Synergy Racing                   2:08.331   0.256  12.267  95.378
23.  21 GS    Bodymotion Racing                2:08.565   0.234  12.501  95.205
24.  09 GS    Automatic Racing                 2:08.668   0.103  12.604  95.129
25.  11 GS    Powell Motorsport                2:08.761   0.093  12.697  95.060
26.  93 GS    Anchor Racing                    2:08.777   0.016  12.713  95.048
27.  88 GS    Knobel Racing                    2:08.810   0.033  12.746  95.024
28.  63 GS    Team RPM                         2:08.822   0.012  12.758  95.015
29.  84 GS    DWW/GorillaRacing.com            2:09.518   0.696  13.454  94.504
30.  18 GS    Race Prep Motorsports            2:09.616   0.098  13.552  94.433
31.  38 GS    BGB Motorsports                  2:09.655   0.039  13.591  94.404
32.  89 GS    LNS Motorsports                  2:09.749   0.094  13.685  94.336
33.  83 GS    BGB Motorsports                  2:09.778   0.029  13.714  94.315
34.  37 GS    JBS Motorsports                  2:10.277   0.499  14.213  93.954
35.  14 GS    Frederick Motorsports            2:10.522   0.245  14.458  93.777
36.  47 GS    TF Racing                        2:10.662   0.140  14.598  93.677
37.  35 GS    Schuitemaker Motorsports         2:10.771   0.109  14.707  93.599
38.  59 GS    Rehagen Racing                   2:11.571   0.800  15.507  93.030
39.  23 GS    Hamilton Safe Motorsports        2:11.914   0.343  15.850  92.788
40.  42 GS    Team Sahlen                      2:11.940   0.026  15.876  92.769
41.  00 ST    Georgian Bay Motorsports         2:13.244   1.304  17.180  91.862
42.  52 GS    Rehagen Racing                   2:13.262   0.018  17.198  91.849
43.  95 ST    Turner Motorsports               2:13.795   0.533  17.731  91.483
44.  27 ST    Bill Fenton Motorsports          2:13.878   0.083  17.814  91.427
45.  64 ST    Matt Connolly Motorsports        2:13.961   0.083  17.897  91.370
46.  70 ST    SpeedSource                      2:13.966   0.005  17.902  91.366
47.  97 ST    Turner Motorsports               2:14.215   0.249  18.151  91.197
48.  48 ST    WTF Engineering                  2:14.221   0.006  18.157  91.193
49.  12 ST    TC Kline Racing                  2:14.327   0.106  18.263  91.121
50.  66 ST    SpeedSource                      2:14.365   0.038  18.301  91.095
51.  68 ST    SpeedSource                      2:14.774   0.409  18.710  90.819
52.  49 ST    Southpaw Racing                  2:14.847   0.073  18.783  90.770
53.  32 ST    Franklin American                2:15.110   0.263  19.046  90.593
54.  29 ST    Bill Fenton Motorsports          2:15.190   0.080  19.126  90.539
55.  74 ST    Kensai Racing                    2:15.217   0.027  19.153  90.521
56.  06 ST    Compass360/Racing                2:15.388   0.171  19.324  90.407
57.  71 ST    TC Kline Racing                  2:15.592   0.204  19.528  90.271
58.  39 ST    Matt Connolly Motorsports        2:15.632   0.040  19.568  90.244
59.  65 ST    SpeedSource                      2:15.662   0.030  19.598  90.224
60.  67 ST    SpeedSource                      2:16.179   0.517  20.115  89.882
61.  34 GS    Schuitemaker Motorsports         2:16.325   0.146  20.261  89.785
62.  50 ST    Southpaw Racing                  2:17.121   0.796  21.057  89.264
63.  36 ST    Compass360/Racing                2:17.310   0.189  21.246  89.141
64.  62 ST    DEI Racers Group                 2:17.517   0.207  21.453  89.007
65.  72 ST    Anchor Racing                    2:17.545   0.028  21.481  88.989
66.  46 ST    Franklin American Mortgage       2:20.068   2.523  24.004  87.386
67.  94 ST    Radial Motorsports               2:21.629   1.561  25.565  86.423
68.  25 ST    HBAR Motorsports                 2:23.090   1.461  27.026  85.541
69.  20 ST    Nuzzo Motorsports                2:25.790   2.700  29.726  83.956
70.  51 ST    Fountain Motorsports             3:20.936  55.146 1:24.87  60.915
71.  02 ST    Nuzzo Motorsports                 No Time
72.  15 GS    Frederick Motorsports             No Time
73.  24 GS    Power Racing Team                 No Time

Be part of something big

Write a comment
Show comments
About this article
Series Grand-Am
Drivers Matt Connolly , Bill Fenton
Teams Krohn Racing , Rehagen Racing , Turner Motorsport , Team Sahlen , Multimatic Motorsports , Automatic Racing , Bodymotion Racing , SpeedSource